createdAt,value
2022-08-04T00:01:19.449Z,4.07
2022-08-04T00:03:57.392Z,4.00
2022-08-04T00:06:40.162Z,1.90
2022-08-04T00:09:15.288Z,2.60
2022-08-04T00:11:47.090Z,2.77
2022-08-04T00:14:17.281Z,5.90
2022-08-04T00:16:49.189Z,3.53
2022-08-04T00:19:24.748Z,2.83
2022-08-04T00:21:56.866Z,2.43
2022-08-04T00:24:25.312Z,4.27
2022-08-04T00:26:54.844Z,1.97
2022-08-04T00:29:24.050Z,2.63
2022-08-04T00:31:56.884Z,4.07
2022-08-04T00:34:28.996Z,2.43
2022-08-04T00:36:58.306Z,2.00
2022-08-04T00:39:27.421Z,3.53
2022-08-04T00:42:22.958Z,7.80
2022-08-04T00:45:04.449Z,5.53
2022-08-04T00:47:45.888Z,2.40
2022-08-04T00:50:25.891Z,2.20
2022-08-04T00:53:07.472Z,2.13
2022-08-04T00:55:48.588Z,4.60
2022-08-04T00:58:35.957Z,3.40
2022-08-04T01:01:07.790Z,3.03
2022-08-04T01:03:50.434Z,2.47
2022-08-04T01:06:35.934Z,2.20
2022-08-04T01:09:35.218Z,2.77
2022-08-04T01:12:18.493Z,4.50
2022-08-04T01:14:58.142Z,2.13
2022-08-04T01:17:34.519Z,3.60
2022-08-04T01:20:07.680Z,2.33
2022-08-04T01:23:01.095Z,3.53
2022-08-04T01:25:56.228Z,2.20
2022-08-04T01:28:38.937Z,4.53
2022-08-04T01:31:21.834Z,2.70
2022-08-04T01:33:59.127Z,4.23
2022-08-04T01:36:38.052Z,2.83
2022-08-04T01:39:28.742Z,3.80
2022-08-04T01:41:58.827Z,5.43
2022-08-04T01:44:29.576Z,2.53
2022-08-04T01:47:01.496Z,2.27
2022-08-04T01:49:39.832Z,2.20
2022-08-04T01:52:12.021Z,6.07
2022-08-04T01:54:43.049Z,5.50
2022-08-04T01:57:38.083Z,3.50
2022-08-04T02:00:01.504Z,7.63
2022-08-04T02:02:34.625Z,5.10
2022-08-04T02:05:03.208Z,2.83
2022-08-04T02:07:47.081Z,5.70
2022-08-04T02:10:26.512Z,4.20
2022-08-04T02:13:02.103Z,2.47
2022-08-04T02:15:34.969Z,3.00
2022-08-04T02:18:07.108Z,4.20
2022-08-04T02:20:38.740Z,3.47
2022-08-04T02:23:09.933Z,4.50
2022-08-04T02:25:41.052Z,5.40
2022-08-04T02:28:20.644Z,3.67
2022-08-04T02:30:58.830Z,4.83
2022-08-04T02:33:36.854Z,4.73
2022-08-04T02:36:07.452Z,2.53
2022-08-04T02:38:48.734Z,5.33
2022-08-04T02:41:18.639Z,2.67
2022-08-04T02:43:51.569Z,5.40
2022-08-04T02:46:22.980Z,3.53
2022-08-04T02:48:54.549Z,2.50
2022-08-04T02:51:25.932Z,2.90
2022-08-04T02:53:56.070Z,3.53
2022-08-04T02:56:25.722Z,4.27
2022-08-04T02:58:59.147Z,4.70
2022-08-04T03:01:27.551Z,4.00
2022-08-04T03:04:13.896Z,5.40
2022-08-04T03:07:30.385Z,6.57
2022-08-04T03:10:29.357Z,3.40
2022-08-04T03:13:39.674Z,5.63
2022-08-04T03:16:34.405Z,2.97
2022-08-04T03:19:31.365Z,2.37
2022-08-04T03:22:23.831Z,2.57
2022-08-04T03:25:36.730Z,2.60
2022-08-04T03:28:54.641Z,4.73
2022-08-04T03:32:03.093Z,3.43
2022-08-04T03:34:47.442Z,3.03
2022-08-04T03:37:37.274Z,3.10
2022-08-04T03:40:38.896Z,3.80
2022-08-04T03:43:58.325Z,3.40
2022-08-04T03:46:51.428Z,2.77
2022-08-04T03:49:51.466Z,6.47
2022-08-04T03:53:08.011Z,3.03
2022-08-04T03:55:47.581Z,3.00
2022-08-04T03:58:40.754Z,2.80
2022-08-04T04:01:24.343Z,4.57
2022-08-04T04:04:04.818Z,2.93
2022-08-04T04:07:00.623Z,2.90
2022-08-04T04:10:08.907Z,2.83
2022-08-04T04:13:07.417Z,6.00
2022-08-04T04:15:52.496Z,3.77
2022-08-04T04:18:38.849Z,2.77
2022-08-04T04:21:36.181Z,3.37
2022-08-04T04:24:34.410Z,4.20
2022-08-04T04:27:17.823Z,4.00
2022-08-04T04:30:15.372Z,3.27
2022-08-04T04:33:08.760Z,3.40
2022-08-04T04:35:49.532Z,3.37
2022-08-04T04:38:31.812Z,4.13
2022-08-04T04:41:23.563Z,4.50
2022-08-04T04:44:30.188Z,3.37
2022-08-04T04:47:05.707Z,3.20
2022-08-04T04:49:40.781Z,3.20
2022-08-04T04:52:14.321Z,5.40
2022-08-04T04:54:51.908Z,3.53
2022-08-04T04:57:53.254Z,5.60
2022-08-04T05:00:13.808Z,4.37
2022-08-04T05:03:10.437Z,4.53
2022-08-04T05:05:49.945Z,2.93
2022-08-04T05:09:07.673Z,5.10
2022-08-04T05:11:51.966Z,4.03
2022-08-04T05:14:34.838Z,5.13
2022-08-04T05:17:17.464Z,6.63
2022-08-04T05:19:55.640Z,4.07
2022-08-04T05:22:30.782Z,13.43
2022-08-04T05:25:07.173Z,5.13
2022-08-04T05:27:42.207Z,3.40
2022-08-04T05:30:13.474Z,3.43
2022-08-04T05:32:50.117Z,7.57
2022-08-04T05:35:49.782Z,3.23
2022-08-04T05:38:23.196Z,3.37
2022-08-04T05:40:52.278Z,3.10
2022-08-04T05:43:24.593Z,3.47
2022-08-04T05:45:57.720Z,3.30
2022-08-04T05:48:27.143Z,6.00
2022-08-04T05:51:00.581Z,4.87
2022-08-04T05:53:30.266Z,3.23
2022-08-04T05:56:00.125Z,4.80
2022-08-04T05:58:31.624Z,3.40
2022-08-04T06:01:02.912Z,6.47
2022-08-04T06:03:32.692Z,6.20
2022-08-04T06:06:02.478Z,4.97
2022-08-04T06:08:31.417Z,5.80
2022-08-04T06:11:04.772Z,6.93
2022-08-04T06:13:49.729Z,4.07
2022-08-04T06:16:30.036Z,8.80
2022-08-04T06:20:01.315Z,5.57
2022-08-04T06:21:55.273Z,7.23
2022-08-04T06:24:25.898Z,3.33
2022-08-04T06:26:54.378Z,7.00
2022-08-04T06:29:28.254Z,9.53
2022-08-04T06:32:29.771Z,15.47
2022-08-04T06:34:48.694Z,3.97
2022-08-04T06:37:41.062Z,3.07
2022-08-04T06:40:31.966Z,7.87
2022-08-04T06:42:57.522Z,4.67
2022-08-04T06:45:26.514Z,6.60
2022-08-04T06:47:57.130Z,12.33
2022-08-04T06:51:34.569Z,3.30
2022-08-04T06:53:15.004Z,4.70
2022-08-04T06:55:46.016Z,3.60
2022-08-04T06:58:15.914Z,5.70
2022-08-04T07:00:46.909Z,3.43
2022-08-04T07:03:18.544Z,2.87
2022-08-04T07:05:48.383Z,6.70
2022-08-04T07:08:17.612Z,7.50
2022-08-04T07:10:47.340Z,10.30
2022-08-04T07:13:16.708Z,3.20
2022-08-04T07:15:46.758Z,3.97
2022-08-04T07:18:16.669Z,3.33
2022-08-04T07:20:46.177Z,9.23
2022-08-04T07:23:17.579Z,6.00
2022-08-04T07:26:11.013Z,8.37
2022-08-04T07:28:41.236Z,8.37
2022-08-04T07:31:34.514Z,11.90
2022-08-04T07:34:16.597Z,6.97
2022-08-04T07:36:53.110Z,7.40
2022-08-04T07:39:28.256Z,6.40
2022-08-04T07:42:01.215Z,6.00
2022-08-04T07:44:31.024Z,4.63
2022-08-04T07:46:59.696Z,5.50
2022-08-04T07:49:55.307Z,11.97
2022-08-04T07:52:18.136Z,3.73
2022-08-04T07:54:46.766Z,3.23
2022-08-04T07:57:19.029Z,5.50
2022-08-04T07:59:50.105Z,8.17
2022-08-04T08:02:21.319Z,4.20
2022-08-04T08:04:51.305Z,6.80
2022-08-04T08:07:20.800Z,5.97
2022-08-04T08:09:49.292Z,4.23
2022-08-04T08:12:37.697Z,2.20
2022-08-04T08:15:06.774Z,3.07
2022-08-04T08:18:00.050Z,7.17
2022-08-04T08:20:31.583Z,2.40
2022-08-04T08:23:00.798Z,5.23
2022-08-04T08:25:30.502Z,3.83
2022-08-04T08:27:58.693Z,3.30
2022-08-04T08:30:31.701Z,6.10
2022-08-04T08:33:03.183Z,6.13
2022-08-04T08:35:53.021Z,4.83
2022-08-04T08:38:45.904Z,2.20
2022-08-04T08:41:37.212Z,4.80
2022-08-04T08:44:54.838Z,3.30
2022-08-04T08:48:06.374Z,8.73
2022-08-04T08:51:04.392Z,6.27
2022-08-04T08:53:49.087Z,5.33
2022-08-04T08:56:31.487Z,2.33
2022-08-04T08:59:22.374Z,8.10
2022-08-04T09:02:08.074Z,14.10
2022-08-04T09:05:07.730Z,8.10
2022-08-04T09:07:58.712Z,5.77
2022-08-04T09:10:33.387Z,6.30
2022-08-04T09:13:07.088Z,6.57
2022-08-04T09:15:40.911Z,12.43
2022-08-04T09:18:14.563Z,15.33
2022-08-04T09:20:49.153Z,19.27
2022-08-04T09:23:29.382Z,5.90
2022-08-04T09:26:05.257Z,10.17
2022-08-04T09:28:55.008Z,3.00
2022-08-04T09:31:51.778Z,7.00
2022-08-04T09:34:28.709Z,8.83
2022-08-04T09:37:05.780Z,5.60
2022-08-04T09:39:52.101Z,6.30
2022-08-04T09:42:30.264Z,4.57
2022-08-04T09:45:06.499Z,3.70
2022-08-04T09:47:40.982Z,3.60
2022-08-04T09:50:22.225Z,12.13
2022-08-04T09:52:59.236Z,3.50
2022-08-04T09:55:53.676Z,5.00
2022-08-04T09:58:34.889Z,5.00
2022-08-04T10:01:05.956Z,4.80
2022-08-04T10:03:38.105Z,2.57
2022-08-04T10:06:20.898Z,4.83
2022-08-04T10:09:09.590Z,1.90
2022-08-04T10:11:55.520Z,2.40
2022-08-04T10:14:39.207Z,2.20
2022-08-04T10:17:21.506Z,2.90
2022-08-04T10:19:59.206Z,1.60
2022-08-04T10:22:44.663Z,5.23
2022-08-04T10:26:02.561Z,2.07
2022-08-04T10:28:23.207Z,1.60
2022-08-04T10:30:58.817Z,1.57
2022-08-04T10:33:32.465Z,5.30
2022-08-04T10:36:05.528Z,1.73
2022-08-04T10:38:43.144Z,4.73
2022-08-04T10:41:18.021Z,4.37
2022-08-04T10:43:54.148Z,2.47
2022-08-04T10:46:29.140Z,1.63
2022-08-04T10:49:00.004Z,1.23
2022-08-04T10:51:57.927Z,5.13
2022-08-04T10:54:32.700Z,1.43
2022-08-04T10:57:07.760Z,3.23
2022-08-04T10:59:44.413Z,1.60
2022-08-04T11:02:26.999Z,6.63
2022-08-04T11:05:02.352Z,2.93
2022-08-04T11:07:33.697Z,2.90
2022-08-04T11:10:02.624Z,2.53
2022-08-04T11:12:32.239Z,1.17
2022-08-04T11:15:05.797Z,2.93
2022-08-04T11:17:37.708Z,1.67
2022-08-04T11:20:34.535Z,5.97
2022-08-04T11:23:07.948Z,2.13
2022-08-04T11:25:48.504Z,4.30
2022-08-04T11:28:32.327Z,3.73
2022-08-04T11:31:06.074Z,1.83
2022-08-04T11:33:42.285Z,2.20
2022-08-04T11:36:21.371Z,5.13
2022-08-04T11:38:57.505Z,3.13
2022-08-04T11:41:38.778Z,3.33
2022-08-04T11:44:12.810Z,1.20
2022-08-04T11:46:48.542Z,3.20
2022-08-04T11:49:25.137Z,3.70
2022-08-04T11:51:54.617Z,2.80
2022-08-04T11:54:23.449Z,1.30
2022-08-04T11:56:52.270Z,4.57
2022-08-04T11:59:24.633Z,2.40
2022-08-04T12:02:08.493Z,1.70
2022-08-04T12:04:47.974Z,3.93
2022-08-04T12:07:31.407Z,5.37
2022-08-04T12:10:15.199Z,3.23
2022-08-04T12:12:47.382Z,1.00
2022-08-04T12:15:24.363Z,1.93
2022-08-04T12:18:03.911Z,5.07
2022-08-04T12:20:43.168Z,1.43
2022-08-04T12:23:23.023Z,2.50
2022-08-04T12:25:54.313Z,6.00
2022-08-04T12:28:41.328Z,1.33
2022-08-04T12:31:23.434Z,1.20
2022-08-04T12:34:04.810Z,1.20
2022-08-04T12:36:41.141Z,5.30
2022-08-04T12:39:13.380Z,3.40
2022-08-04T12:41:49.590Z,2.13
2022-08-04T12:44:36.495Z,5.33
2022-08-04T12:47:26.664Z,4.47
2022-08-04T12:50:03.497Z,1.43
2022-08-04T12:53:01.454Z,1.77
2022-08-04T12:55:28.661Z,4.43
2022-08-04T12:57:58.349Z,3.17
2022-08-04T13:00:38.209Z,1.47
2022-08-04T13:03:12.754Z,1.27
2022-08-04T13:05:43.865Z,2.37
2022-08-04T13:08:13.759Z,5.03
2022-08-04T13:10:44.804Z,1.20
2022-08-04T13:13:19.879Z,2.97
2022-08-04T13:15:59.693Z,3.00
2022-08-04T13:18:32.514Z,3.97
2022-08-04T13:21:21.143Z,3.47
2022-08-04T13:24:09.949Z,2.07
2022-08-04T13:26:55.168Z,6.00
2022-08-04T13:29:59.005Z,2.53
2022-08-04T13:32:25.314Z,3.33
2022-08-04T13:34:56.448Z,4.60
2022-08-04T13:37:33.185Z,2.20
2022-08-04T13:40:03.923Z,7.78
2022-08-04T13:42:35.739Z,2.55
2022-08-04T13:45:07.264Z,3.38
2022-08-04T13:47:38.930Z,1.20
2022-08-04T13:50:11.231Z,2.33
2022-08-04T13:52:41.991Z,1.77
2022-08-04T13:55:19.370Z,3.40
2022-08-04T13:57:51.301Z,2.97
2022-08-04T14:00:30.209Z,2.90
2022-08-04T14:03:02.685Z,1.55
2022-08-04T14:05:37.134Z,3.78
2022-08-04T14:08:29.110Z,2.35
2022-08-04T14:11:00.077Z,3.00
2022-08-04T14:13:41.152Z,1.17
2022-08-04T14:16:19.359Z,2.88
2022-08-04T14:18:48.030Z,1.90
2022-08-04T14:21:17.581Z,8.25
2022-08-04T14:23:50.813Z,2.20
2022-08-04T14:26:32.550Z,2.30
2022-08-04T14:29:27.375Z,1.77
2022-08-04T14:32:10.508Z,1.95
2022-08-04T14:34:41.238Z,1.63
2022-08-04T14:37:17.162Z,1.23
2022-08-04T14:40:18.790Z,3.85
2022-08-04T14:42:43.073Z,2.30
2022-08-04T14:45:11.997Z,7.65
2022-08-04T14:47:41.563Z,1.25
2022-08-04T14:50:20.384Z,4.43
2022-08-04T14:52:48.508Z,1.88
2022-08-04T14:55:20.235Z,3.40
2022-08-04T14:58:34.000Z,7.22
2022-08-04T15:00:37.918Z,3.20
2022-08-04T15:03:08.978Z,3.33
2022-08-04T15:05:55.155Z,6.07
2022-08-04T15:08:30.887Z,2.25
2022-08-04T15:11:03.171Z,1.75
2022-08-04T15:13:33.130Z,2.33
2022-08-04T15:16:07.862Z,7.60
2022-08-04T15:18:37.746Z,3.33
2022-08-04T15:21:08.928Z,3.17
2022-08-04T15:23:39.682Z,5.60
2022-08-04T15:26:13.728Z,3.10
2022-08-04T15:28:45.724Z,1.30
2022-08-04T15:32:06.580Z,2.80
2022-08-04T15:34:04.856Z,1.40
2022-08-04T15:36:38.895Z,2.25
2022-08-04T15:39:18.675Z,4.70
2022-08-04T15:42:02.841Z,4.43
2022-08-04T15:44:59.973Z,6.22
2022-08-04T15:47:28.299Z,3.30
2022-08-04T15:50:10.069Z,5.97
2022-08-04T15:53:12.570Z,2.27
2022-08-04T15:55:43.948Z,4.00
2022-08-04T15:58:14.930Z,5.20
2022-08-04T16:01:17.903Z,2.90
2022-08-04T16:03:57.870Z,1.97
2022-08-04T16:06:45.329Z,4.27
2022-08-04T16:09:24.743Z,2.73
2022-08-04T16:12:55.454Z,1.83
2022-08-04T16:15:42.538Z,4.70
2022-08-04T16:18:15.158Z,1.40
2022-08-04T16:20:57.548Z,4.83
2022-08-04T16:23:55.161Z,16.57
2022-08-04T16:26:55.078Z,6.40
2022-08-04T16:29:41.395Z,3.73
2022-08-04T16:32:22.193Z,7.03
2022-08-04T16:34:56.386Z,2.13
2022-08-04T16:37:30.749Z,2.03
2022-08-04T16:40:44.171Z,4.73
2022-08-04T16:43:14.518Z,10.10
2022-08-04T16:45:48.001Z,3.77
2022-08-04T16:48:18.494Z,2.47
2022-08-04T16:51:04.535Z,2.10
2022-08-04T16:54:04.258Z,4.03
2022-08-04T16:56:30.470Z,7.10
2022-08-04T16:59:08.226Z,3.20
2022-08-04T17:01:36.832Z,1.93
2022-08-04T17:04:07.323Z,5.33
2022-08-04T17:06:37.755Z,2.00
2022-08-04T17:09:07.812Z,1.83
2022-08-04T17:11:36.095Z,1.97
2022-08-04T17:14:06.052Z,1.70
2022-08-04T17:16:36.193Z,6.13
2022-08-04T17:19:06.709Z,2.23
2022-08-04T17:21:48.938Z,2.87
2022-08-04T17:24:18.092Z,2.73
2022-08-04T17:26:54.138Z,3.10
2022-08-04T17:29:43.302Z,3.33
2022-08-04T17:32:18.636Z,3.77
2022-08-04T17:34:52.714Z,4.40
2022-08-04T17:37:52.556Z,3.67
2022-08-04T17:40:13.322Z,6.90
2022-08-04T17:42:42.455Z,3.90
2022-08-04T17:45:49.145Z,7.03
2022-08-04T17:48:09.945Z,1.63
2022-08-04T17:50:43.356Z,5.03
2022-08-04T17:53:13.354Z,1.83
2022-08-04T17:55:47.542Z,2.90
2022-08-04T17:58:21.384Z,3.70
2022-08-04T18:01:23.795Z,6.43
2022-08-04T18:03:51.541Z,3.27
2022-08-04T18:06:25.716Z,3.53
2022-08-04T18:08:59.447Z,9.83
2022-08-04T18:11:53.784Z,1.80
2022-08-04T18:14:25.924Z,9.53
2022-08-04T18:16:57.795Z,3.67
2022-08-04T18:19:25.985Z,5.20
2022-08-04T18:22:01.281Z,5.90
2022-08-04T18:24:36.161Z,4.87
2022-08-04T18:27:21.325Z,3.53
2022-08-04T18:30:15.348Z,3.53
2022-08-04T18:32:51.317Z,2.93
2022-08-04T18:36:31.274Z,3.10
2022-08-04T18:38:22.620Z,3.63
2022-08-04T18:40:54.673Z,4.23
2022-08-04T18:43:28.472Z,5.20
2022-08-04T18:45:59.409Z,4.10
2022-08-04T18:48:35.944Z,4.23
2022-08-04T18:51:11.376Z,3.20
2022-08-04T18:53:55.229Z,2.30
2022-08-04T18:56:29.694Z,3.03
2022-08-04T18:59:01.498Z,4.50
2022-08-04T19:02:09.345Z,3.40
2022-08-04T19:04:33.012Z,6.67
2022-08-04T19:07:29.614Z,5.73
2022-08-04T19:09:54.114Z,10.40
2022-08-04T19:12:28.269Z,8.00
2022-08-04T19:17:53.830Z,6.77
2022-08-04T19:20:26.844Z,8.50
2022-08-04T19:24:10.483Z,11.27
2022-08-04T19:26:02.479Z,11.67
2022-08-04T19:28:35.516Z,12.60
2022-08-04T19:31:05.981Z,7.37
2022-08-04T19:36:27.897Z,9.27
2022-08-04T19:38:57.795Z,8.83
2022-08-04T19:41:29.385Z,11.53
2022-08-04T19:43:58.759Z,11.80
2022-08-04T19:46:28.797Z,9.13
2022-08-04T19:49:00.164Z,7.10
2022-08-04T19:51:29.985Z,9.63
2022-08-04T19:54:03.998Z,11.33
2022-08-04T19:56:41.464Z,11.53
2022-08-04T19:59:10.370Z,12.13
2022-08-04T20:01:44.836Z,7.43
2022-08-04T20:04:14.050Z,17.03
2022-08-04T20:06:42.554Z,11.40
2022-08-04T20:09:24.831Z,9.23
2022-08-04T20:11:56.243Z,7.70
2022-08-04T20:14:32.555Z,10.20
2022-08-04T20:17:02.751Z,4.97
2022-08-04T20:19:31.036Z,8.23
2022-08-04T20:21:59.991Z,6.30
2022-08-04T20:24:39.237Z,5.00
2022-08-04T20:27:15.495Z,7.00
2022-08-04T20:29:48.335Z,11.13
2022-08-04T20:32:19.467Z,2.97
2022-08-04T20:34:48.509Z,4.13
2022-08-04T20:37:16.683Z,4.27
2022-08-04T20:39:44.875Z,11.03
2022-08-04T20:42:27.330Z,3.60
2022-08-04T20:44:56.429Z,10.40
2022-08-04T20:47:26.140Z,6.33
2022-08-04T20:49:59.491Z,9.07
2022-08-04T20:52:30.420Z,5.17
2022-08-04T20:54:58.983Z,4.67
2022-08-04T20:57:48.560Z,9.63
2022-08-04T21:00:26.316Z,5.70
2022-08-04T21:02:58.671Z,10.17
2022-08-04T21:05:26.916Z,7.73
2022-08-04T21:07:56.632Z,9.10
2022-08-04T21:10:25.747Z,4.13
2022-08-04T21:12:55.877Z,4.60
2022-08-04T21:18:14.438Z,11.13
2022-08-04T21:20:44.999Z,16.77
2022-08-04T21:23:16.698Z,9.77
2022-08-04T21:25:45.685Z,5.20
2022-08-04T21:28:20.335Z,16.20
2022-08-04T21:30:54.159Z,5.70
2022-08-04T21:33:24.139Z,7.90
2022-08-04T21:36:12.416Z,3.60
2022-08-04T21:38:41.764Z,10.77
2022-08-04T21:41:24.338Z,7.60
2022-08-04T21:43:55.159Z,5.30
2022-08-04T21:46:23.770Z,10.03
2022-08-04T21:48:52.229Z,12.90
2022-08-04T21:51:57.978Z,14.20
2022-08-04T21:54:16.924Z,14.93
2022-08-04T21:56:50.972Z,15.70
2022-08-04T22:02:10.273Z,8.77
2022-08-04T22:04:38.458Z,13.50
2022-08-04T22:07:06.592Z,17.83
2022-08-04T22:12:23.018Z,14.90
2022-08-04T22:14:59.237Z,10.60
2022-08-04T22:17:29.382Z,9.80
2022-08-04T22:20:03.764Z,12.37
2022-08-04T22:22:35.572Z,13.73
2022-08-04T22:28:02.635Z,19.00
2022-08-04T22:30:36.968Z,23.20
2022-08-04T22:33:08.708Z,23.20
2022-08-04T22:35:48.567Z,21.27
2022-08-04T22:38:29.072Z,16.07
2022-08-04T22:41:07.916Z,12.97
2022-08-04T22:43:37.594Z,14.43
2022-08-04T22:46:08.670Z,17.23
2022-08-04T22:48:43.274Z,10.57
2022-08-04T22:51:12.796Z,13.10
2022-08-04T22:53:41.756Z,10.73
2022-08-04T22:56:38.619Z,15.70
2022-08-04T22:59:06.018Z,12.60
2022-08-04T23:01:58.916Z,15.83
2022-08-04T23:04:26.615Z,15.13
2022-08-04T23:06:55.345Z,13.93
2022-08-04T23:09:27.049Z,11.47
2022-08-04T23:12:27.844Z,19.63
2022-08-04T23:14:57.126Z,14.53
2022-08-04T23:17:28.394Z,18.00
2022-08-04T23:19:57.805Z,10.53
2022-08-04T23:22:41.296Z,12.27
2022-08-04T23:25:15.143Z,18.80
2022-08-04T23:27:50.425Z,13.03
2022-08-04T23:30:24.564Z,10.57
2022-08-04T23:32:59.543Z,10.93
2022-08-04T23:35:27.714Z,12.97
2022-08-04T23:37:57.944Z,16.37
2022-08-04T23:40:34.095Z,13.67
2022-08-04T23:43:16.989Z,11.63
2022-08-04T23:46:04.543Z,11.80
2022-08-04T23:48:36.513Z,12.63
2022-08-04T23:51:13.825Z,13.80
2022-08-04T23:54:02.066Z,16.33
2022-08-04T23:56:32.726Z,17.20
2022-08-04T23:59:03.883Z,13.67
